Llantwit Fardre, United Kingdom
Current Conditions -  °F | °C
As of 9:50 AM on Wednesday 26 Nov 2014 (Local Time) from EGFF Reporting Station
Overcast Overcast  
Wind Chill: 45°   Ceiling: 900
Heat Index: 45°   Visibility: 4mi
Dew Point: 45°   Wind: 3mph
Humidity: 100%   Direction: 350°N
Pressure: 29.88"   Gusts: NA
Location:  51.55°N, 3.33°W
Report Text: EGFF 260950Z AUTO 35003KT 6000 OVC009 07/07 Q1012
Loading
Personal Weather Stations






























Interactive Weather Map New forecast layout! Learn more

10-Day Weather Forecast

Advertisements
Track Severe Weather on mobile